KNPA/NPA METAR and TAF weather

Enter ICAO airport designator
Station Type Date Time Source
KNPA METAR 2019/10/14 05:56 UTC NOAA

KNPA 140556Z AUTO 05006KT 10SM FEW023 BKN050 23/19 A3003 RMK AO2 SLP171 60000 T02280194 10261 20222 402940167 50000 $


Station Type Date Time Source
KNPA Decoded METAR 2019/10/14 05:56 UTC NOAA

Pensacola, Naval Air Station, FL, United States (KNPA) 30-21-22N 087-19-24W 10M
Oct 14, 2019 - 01:56 AM EDT / 2019.10.14 0556 UTC
Wind: from the NE (050 degrees) at 7 MPH (6 KT):0
Visibility: 10 mile(s):0
Sky conditions: mostly cloudy
Temperature: 73.0 F (22.8 C)
Dew Point: 66.9 F (19.4 C)
Relative Humidity: 81%
Pressure (altimeter): 30.03 in. Hg (1016 hPa)
Pressure tendency: 0.00 inches (0.0 hPa) higher than three hours ago
ob: KNPA 140556Z AUTO 05006KT 10SM FEW023 BKN050 23/19 A3003 RMK AO2 SLP171 60000 T02280194 10261 20222 402940167 50000
cycle: 6

Station Type Date Time Source
KNPA TAF 2019/10/13 23:12 UTC NOAA

TAF KNPA 1323/1423 VRB06KT 9999 VCSH SCT045 SCT120 BKN250 QNH2995INS
BECMG 1403/1405 VRB06KT 9999 VCSH BKN015 BKN045 OVC120 QNH2995INS
BECMG 1408/1410 VRB06KT 9999 SCT045 SCT120 BKN250 QNH2997INS AUTOMATED SENSOR METWATCH 1323 TIL 1511 T22/1412Z T27/1420Z FN00194

Example: see airport list